Bookmark and Share
Track history (hours):
 

Vitsentzos Kornaros

Last reported at 2014-Apr-17 16:25 UTC. Time now 2014-Apr-18 05:30 UTC.
Position N 37°29' E 023°39'.

Length 128 m; draft 4.5 m.

Type: Passenger vessel. MMSI: 239311000.

NotesDate/timePositionNaut miles runAvg speedWind from/ knotsBaromVisibWave heightAir tempDewpointWater temp
2014-Apr-17 16:25N 37°29' E 023°39'1113.1
2014-Apr-17 15:33N 37°40' E 023°41'1313.2
2014-Apr-17 14:33N 37°53' E 023°37'4 4.3
2014-Apr-17 13:33N 37°57' E 023°38'0 0.0
2014-Apr-17 12:33N 37°57' E 023°38'0 0.0
2014-Apr-17 11:33N 37°57' E 023°38'0 0.0
2014-Apr-17 10:33N 37°57' E 023°38'0 0.0
2014-Apr-17 09:33N 37°57' E 023°38'0 0.0
2014-Apr-17 08:33N 37°57' E 023°38'0 0.0
2014-Apr-17 07:33N 37°57' E 023°38'0 0.0
2014-Apr-17 06:33N 37°57' E 023°38'0 0.0
2014-Apr-17 05:33N 37°57' E 023°38'0 0.0
2014-Apr-17 04:33N 37°57' E 023°38'0 0.0
2014-Apr-17 03:33N 37°57' E 023°38'0 0.0
2014-Apr-17 02:33N 37°57' E 023°38'0 0.0
2014-Apr-17 01:33N 37°57' E 023°38'0 0.0
2014-Apr-16 23:32N 37°57' E 023°38'0 0.0
2014-Apr-16 22:33N 37°57' E 023°38'0 0.0
2014-Apr-16 21:33N 37°57' E 023°38'0 0.0
2014-Apr-16 20:33N 37°57' E 023°38'0 0.0
2014-Apr-16 19:33N 37°57' E 023°38'0 0.0
2014-Apr-16 18:33N 37°57' E 023°38'0 0.0
2014-Apr-16 17:33N 37°57' E 023°38'0 0.0
2014-Apr-16 16:33N 37°57' E 023°38'0 0.0
2014-Apr-16 15:33N 37°57' E 023°38'0 0.0
2014-Apr-16 14:33N 37°57' E 023°38'0 0.0
2014-Apr-16 13:33N 37°57' E 023°38'0 0.0
2014-Apr-16 12:33N 37°57' E 023°38'0 0.0
2014-Apr-16 11:33N 37°57' E 023°38'0 0.0
2014-Apr-16 10:33N 37°57' E 023°38'0 0.0
2014-Apr-16 09:33N 37°57' E 023°38'0 0.0
2014-Apr-16 08:33N 37°57' E 023°38'0 0.0
2014-Apr-16 07:33N 37°57' E 023°38'0 0.0
2014-Apr-16 06:31N 37°57' E 023°38'0 0.0
2014-Apr-16 05:33N 37°57' E 023°38'0 0.0
2014-Apr-16 04:33N 37°57' E 023°38'0 0.1
2014-Apr-16 03:33N 37°57' E 023°38'1010.2
2014-Apr-16 02:33N 37°47' E 023°42'1313.3
2014-Apr-16 01:33N 37°34' E 023°43'3014.0
2014-Apr-15 23:24N 37°05' E 023°29'1414.2
2014-Apr-15 22:26N 36°52' E 023°25'1213.9
2014-Apr-15 21:33N 36°41' E 023°20'30 9.7
2014-Apr-15 18:27N 36°11' E 023°11'1313.9
2014-Apr-15 17:29N 36°00' E 023°21'1414.3
2014-Apr-15 16:31N 35°49' E 023°30'1414.3
2014-Apr-15 15:33N 35°36' E 023°38'110 4.6
2014-Apr-14 15:31N 37°27' E 023°38'1414.2
2014-Apr-14 14:34N 37°40' E 023°42'1413.7
2014-Apr-14 13:33N 37°53' E 023°37'4 1.2
2014-Apr-14 10:31N 37°57' E 023°38'0 0.0
2014-Apr-14 09:33N 37°57' E 023°38'0 0.0
2014-Apr-14 08:31N 37°57' E 023°38'0 0.0
2014-Apr-14 07:32N 37°57' E 023°38'0 0.0
2014-Apr-14 06:33N 37°57' E 023°38'0 0.0
2014-Apr-14 05:33N 37°57' E 023°38'12410.1
2014-Apr-13 17:16N 35°54' E 023°19'1614.6
2014-Apr-13 16:11N 35°43' E 023°33'114 2.4
2014-Apr-11 16:05N 37°37' E 023°42'612.4
2014-Apr-11 15:34N 37°43' E 023°41'1212.0
2014-Apr-11 14:33N 37°55' E 023°37'2 1.9
2014-Apr-11 13:23N 37°57' E 023°38'0 0.0
2014-Apr-11 12:31N 37°57' E 023°38'0 0.0
2014-Apr-11 11:31N 37°57' E 023°38'0 0.0
2014-Apr-11 10:22N 37°57' E 023°38'0 0.0
2014-Apr-11 09:31N 37°57' E 023°38'0 0.0
2014-Apr-11 08:07N 37°57' E 023°38'0 0.0
2014-Apr-11 07:15N 37°57' E 023°38'0 0.0
2014-Apr-11 06:25N 37°57' E 023°38'0 0.0
2014-Apr-11 05:30N 37°57' E 023°38'2 1.7
2014-Apr-11 04:33N 37°56' E 023°37'1111.1
2014-Apr-11 03:34N 37°46' E 023°43'5712.7
2014-Apr-10 23:04N 36°51' E 023°24'47 9.6
2014-Apr-10 18:10N 36°04' E 023°18'812.4
2014-Apr-10 17:31N 35°58' E 023°24'43 1.4
2014-Apr-09 11:15N 36°31' E 022°50'3410.9
2014-Apr-09 08:07N 36°03' E 023°14'912.8
2014-Apr-09 07:26N 35°54' E 023°17'6 6.7
2014-Apr-09 06:33N 35°51' E 023°23'1713.1
2014-Apr-09 05:15N 35°38' E 023°37'  

Dump ship's entire track history

sailing weather and tide predictions

Vitsentzos Kornaros — SXNX — position and weather